createdAt,value
2017-09-20T00:00:05.539Z,77.60
2017-09-20T00:02:35.159Z,77.70
2017-09-20T00:05:04.776Z,77.80
2017-09-20T00:07:33.629Z,77.80
2017-09-20T00:10:02.496Z,77.80
2017-09-20T00:12:31.352Z,78.00
2017-09-20T00:15:00.240Z,78.10
2017-09-20T00:17:29.098Z,78.00
2017-09-20T00:19:57.947Z,78.10
2017-09-20T00:22:26.784Z,78.00
2017-09-20T00:24:55.628Z,78.00
2017-09-20T00:27:24.481Z,78.10
2017-09-20T00:29:54.095Z,78.10
2017-09-20T00:32:23.070Z,77.90
2017-09-20T00:34:51.908Z,78.10
2017-09-20T00:37:20.763Z,78.20
2017-09-20T00:39:49.613Z,78.40
2017-09-20T00:42:19.229Z,78.50
2017-09-20T00:44:48.071Z,78.50
2017-09-20T00:47:16.924Z,78.60
2017-09-20T00:49:45.760Z,78.50
2017-09-20T00:52:14.617Z,78.40
2017-09-20T00:54:44.255Z,78.50
2017-09-20T00:57:12.411Z,78.40
2017-09-20T00:59:41.336Z,78.40
2017-09-20T01:02:10.209Z,78.30
2017-09-20T01:04:39.063Z,78.40
2017-09-20T01:07:07.920Z,78.50
2017-09-20T01:09:36.779Z,78.50
2017-09-20T01:12:05.633Z,78.50
2017-09-20T01:14:34.503Z,78.60
2017-09-20T01:17:03.023Z,78.80
2017-09-20T01:19:32.655Z,78.90
2017-09-20T01:22:12.639Z,78.70
2017-09-20T01:24:41.256Z,78.90
2017-09-20T01:27:09.819Z,78.80
2017-09-20T01:29:38.676Z,79.00
2017-09-20T01:32:07.540Z,79.00
2017-09-20T01:34:37.149Z,79.30
2017-09-20T01:37:06.757Z,79.40
2017-09-20T01:39:36.385Z,79.50
2017-09-20T01:42:05.240Z,79.30
2017-09-20T01:44:34.102Z,79.40
2017-09-20T01:47:02.957Z,79.60
2017-09-20T01:49:31.806Z,79.60
2017-09-20T01:52:01.323Z,79.70
2017-09-20T01:54:30.494Z,79.70
2017-09-20T01:56:59.347Z,79.70
2017-09-20T01:59:28.206Z,79.50
2017-09-20T02:01:57.856Z,79.70
2017-09-20T02:04:26.716Z,79.60
2017-09-20T02:06:56.347Z,79.70
2017-09-20T02:09:27.049Z,79.70
2017-09-20T02:11:55.909Z,79.90
2017-09-20T02:14:24.793Z,79.90
2017-09-20T02:16:53.645Z,79.70
2017-09-20T02:19:22.505Z,79.60
2017-09-20T02:21:51.372Z,79.70
2017-09-20T02:24:20.237Z,80.10
2017-09-20T02:26:49.094Z,79.60
2017-09-20T02:29:18.733Z,79.70
2017-09-20T02:31:47.600Z,79.60
2017-09-20T02:34:17.223Z,79.80
2017-09-20T02:36:46.099Z,79.80
2017-09-20T02:39:15.720Z,79.90
2017-09-20T02:41:44.925Z,79.90
2017-09-20T02:44:13.783Z,79.80
2017-09-20T02:46:42.641Z,79.70
2017-09-20T02:49:11.313Z,79.80
2017-09-20T02:51:40.164Z,79.60
2017-09-20T02:54:08.999Z,79.60
2017-09-20T02:56:38.043Z,79.70
2017-09-20T02:59:07.328Z,79.60
2017-09-20T03:01:35.840Z,79.60
2017-09-20T03:04:05.460Z,79.70
2017-09-20T03:06:34.321Z,79.70
2017-09-20T03:09:03.408Z,80.30
2017-09-20T03:11:32.260Z,79.70
2017-09-20T03:14:01.122Z,79.60
2017-09-20T03:16:30.753Z,79.70
2017-09-20T03:19:00.407Z,79.70
2017-09-20T03:21:30.219Z,79.60
2017-09-20T03:23:58.809Z,79.80
2017-09-20T03:26:27.667Z,79.90
2017-09-20T03:28:56.528Z,79.60
2017-09-20T03:31:25.378Z,79.60
2017-09-20T03:33:54.252Z,79.60
2017-09-20T03:36:23.117Z,79.50
2017-09-20T03:38:51.980Z,79.60
2017-09-20T03:41:21.609Z,79.40
2017-09-20T03:43:50.480Z,79.40
2017-09-20T03:46:20.101Z,79.40
2017-09-20T03:48:49.713Z,79.40
2017-09-20T03:51:18.577Z,79.40
2017-09-20T03:53:48.221Z,79.70
2017-09-20T03:56:17.089Z,79.70
2017-09-20T03:58:45.951Z,79.80
2017-09-20T04:01:14.803Z,79.80
2017-09-20T04:03:43.663Z,79.60
2017-09-20T04:06:12.525Z,79.70
2017-09-20T04:08:41.391Z,79.80
2017-09-20T04:11:10.236Z,79.90
2017-09-20T04:13:39.100Z,79.70
2017-09-20T04:16:07.961Z,79.90
2017-09-20T04:18:36.833Z,79.70
2017-09-20T04:21:05.688Z,80.10
2017-09-20T04:23:35.284Z,80.00
2017-09-20T04:26:04.138Z,80.00
2017-09-20T04:28:32.998Z,79.80
2017-09-20T04:31:01.869Z,80.30
2017-09-20T04:33:31.493Z,80.40
2017-09-20T04:36:00.347Z,80.30
2017-09-20T04:38:29.218Z,80.40
2017-09-20T04:40:58.940Z,80.30
2017-09-20T04:43:28.755Z,80.20
2017-09-20T04:45:57.620Z,80.30
2017-09-20T04:48:26.504Z,80.30
2017-09-20T04:50:55.368Z,80.50
2017-09-20T04:53:24.248Z,80.40
2017-09-20T04:55:53.878Z,80.50
2017-09-20T04:58:22.738Z,80.40
2017-09-20T05:00:52.370Z,80.50
2017-09-20T05:03:21.232Z,80.40
2017-09-20T05:05:50.100Z,80.60
2017-09-20T05:08:18.970Z,80.70
2017-09-20T05:10:47.832Z,80.60
2017-09-20T05:13:16.687Z,80.60
2017-09-20T05:15:45.556Z,80.60
2017-09-20T05:18:14.520Z,80.80
2017-09-20T05:20:43.392Z,80.70
2017-09-20T05:23:13.017Z,80.90
2017-09-20T05:25:41.881Z,80.80
2017-09-20T05:28:11.508Z,80.80
2017-09-20T05:30:40.178Z,80.80
2017-09-20T05:33:09.631Z,80.80
2017-09-20T05:35:38.866Z,80.70
2017-09-20T05:38:07.719Z,80.60
2017-09-20T05:40:36.585Z,80.60
2017-09-20T05:43:05.463Z,80.60
2017-09-20T05:45:35.106Z,80.60
2017-09-20T05:48:04.940Z,80.60
2017-09-20T05:50:33.800Z,80.60
2017-09-20T05:53:02.688Z,80.60
2017-09-20T05:55:31.563Z,80.70
2017-09-20T05:58:01.182Z,80.80
2017-09-20T06:00:30.817Z,80.80
2017-09-20T06:03:00.555Z,80.70
2017-09-20T06:05:29.419Z,80.60
2017-09-20T06:07:58.289Z,80.60
2017-09-20T06:10:27.676Z,80.50
2017-09-20T06:12:57.994Z,80.40
2017-09-20T06:15:27.628Z,80.30
2017-09-20T06:17:56.496Z,80.10
2017-09-20T06:20:26.111Z,79.90
2017-09-20T06:22:57.049Z,79.90
2017-09-20T06:25:25.911Z,79.90
2017-09-20T06:27:55.093Z,79.80
2017-09-20T06:30:23.958Z,79.70
2017-09-20T06:32:52.825Z,79.70
2017-09-20T06:35:22.459Z,79.70
2017-09-20T06:37:51.339Z,79.70
2017-09-20T06:40:20.241Z,79.60
2017-09-20T06:42:49.105Z,79.70
2017-09-20T06:45:18.732Z,79.70
2017-09-20T06:47:48.916Z,79.70
2017-09-20T06:50:18.562Z,79.90
2017-09-20T06:52:48.135Z,80.10
2017-09-20T06:55:17.237Z,80.00
2017-09-20T06:57:46.105Z,80.40
2017-09-20T07:00:15.992Z,80.00
2017-09-20T07:05:18.262Z,79.70
2017-09-20T07:07:48.940Z,79.50
2017-09-20T07:10:17.809Z,79.80
2017-09-20T07:12:46.825Z,79.50
2017-09-20T07:15:15.683Z,79.40
2017-09-20T07:17:44.547Z,79.20
2017-09-20T07:20:14.171Z,78.50
2017-09-20T07:22:43.036Z,78.50
2017-09-20T07:25:13.827Z,78.50
2017-09-20T07:27:42.704Z,78.30
2017-09-20T07:30:12.390Z,78.20
2017-09-20T07:32:47.985Z,77.70
2017-09-20T07:35:16.855Z,77.70
2017-09-20T08:24:30.509Z,77.20
2017-09-20T08:26:59.369Z,73.10
2017-09-20T08:29:28.238Z,73.30
2017-09-20T08:31:57.110Z,73.30
2017-09-20T08:34:25.781Z,73.20
2017-09-20T08:36:54.715Z,73.20
2017-09-20T08:39:23.388Z,73.20
2017-09-20T08:41:52.298Z,73.40
2017-09-20T08:44:21.157Z,72.90
2017-09-20T08:46:50.029Z,72.20
2017-09-20T08:49:19.858Z,71.60
2017-09-20T08:51:48.727Z,71.30
2017-09-20T08:54:17.583Z,69.80
2017-09-20T08:56:46.484Z,69.60
2017-09-20T08:59:17.142Z,69.30
2017-09-20T09:01:46.029Z,69.20
2017-09-20T09:04:14.888Z,69.70
2017-09-20T09:06:44.585Z,69.80
2017-09-20T09:09:13.431Z,69.50
2017-09-20T09:11:42.315Z,70.10
2017-09-20T09:14:11.208Z,70.20
2017-09-20T09:16:40.954Z,70.80
2017-09-20T09:19:09.846Z,72.10
2017-09-20T09:21:38.722Z,73.10
2017-09-20T09:24:07.709Z,74.10
2017-09-20T09:26:36.969Z,74.90
2017-09-20T09:29:05.846Z,76.10
2017-09-20T09:31:35.485Z,75.30
2017-09-20T09:34:04.360Z,75.70
2017-09-20T09:36:33.861Z,75.40
2017-09-20T09:39:02.756Z,75.20
2017-09-20T09:41:32.426Z,74.40
2017-09-20T09:44:06.199Z,74.40
2017-09-20T09:46:35.082Z,72.70
2017-09-20T09:49:03.969Z,71.90
2017-09-20T09:51:32.868Z,71.30
2017-09-20T09:54:01.758Z,71.30
2017-09-20T09:56:33.888Z,71.40
2017-09-20T10:01:38.498Z,70.40
2017-09-20T10:04:10.680Z,70.00
2017-09-20T10:06:44.704Z,70.00
2017-09-20T10:11:53.460Z,70.30
2017-09-20T10:14:23.186Z,70.20
2017-09-20T10:16:53.203Z,70.10
2017-09-20T10:19:22.834Z,69.50
2017-09-20T10:21:51.705Z,69.70
2017-09-20T10:24:22.364Z,69.30
2017-09-20T10:26:51.816Z,69.30
2017-09-20T10:29:20.751Z,69.40
2017-09-20T10:31:49.617Z,69.40
2017-09-20T10:34:20.428Z,69.50
2017-09-20T10:36:49.305Z,69.50
2017-09-20T10:39:18.944Z,68.70
2017-09-20T10:41:48.469Z,68.70
2017-09-20T10:44:18.100Z,67.30
2017-09-20T10:46:46.973Z,66.90
2017-09-20T10:49:16.636Z,67.20
2017-09-20T10:51:45.337Z,67.20
2017-09-20T10:54:15.895Z,67.50
2017-09-20T10:56:44.780Z,67.40
2017-09-20T10:59:14.121Z,67.50
2017-09-20T11:01:42.980Z,67.00
2017-09-20T11:04:12.612Z,66.20
2017-09-20T11:06:41.827Z,66.10
2017-09-20T11:09:12.188Z,65.60
2017-09-20T11:11:41.049Z,65.40
2017-09-20T11:14:09.900Z,64.50
2017-09-20T11:16:40.569Z,64.10
2017-09-20T11:19:09.585Z,63.70
2017-09-20T11:21:39.027Z,62.50
2017-09-20T11:24:10.672Z,62.10
2017-09-20T11:26:39.570Z,61.30
2017-09-20T11:29:08.423Z,61.20
2017-09-20T11:31:37.297Z,60.70
2017-09-20T11:34:06.152Z,60.20
2017-09-20T11:36:35.000Z,60.00
2017-09-20T11:39:04.478Z,59.90
2017-09-20T11:41:33.366Z,60.10
2017-09-20T11:44:14.620Z,60.00
2017-09-20T11:46:43.873Z,60.70
2017-09-20T11:49:13.423Z,61.40
2017-09-20T11:51:43.059Z,61.80
2017-09-20T11:54:11.919Z,62.30
2017-09-20T11:56:40.803Z,62.60
2017-09-20T11:59:10.498Z,62.70
2017-09-20T12:01:39.343Z,62.90
2017-09-20T12:04:08.196Z,63.00
2017-09-20T12:06:37.053Z,63.90
2017-09-20T12:09:05.556Z,64.30
2017-09-20T12:11:34.410Z,65.10
2017-09-20T12:14:03.290Z,65.80
2017-09-20T12:16:33.761Z,66.50
2017-09-20T12:19:02.632Z,66.50
2017-09-20T12:21:31.951Z,66.60
2017-09-20T12:24:00.915Z,66.40
2017-09-20T12:26:29.768Z,65.70
2017-09-20T12:28:58.667Z,65.40
2017-09-20T12:31:28.287Z,65.00
2017-09-20T12:33:58.564Z,64.30
2017-09-20T12:36:27.429Z,64.20
2017-09-20T12:38:56.312Z,63.60
2017-09-20T12:41:25.177Z,62.30
2017-09-20T12:43:55.581Z,60.30
2017-09-20T12:46:24.521Z,60.20
2017-09-20T12:48:53.373Z,59.70
2017-09-20T12:51:22.305Z,59.60
2017-09-20T12:53:51.194Z,60.00
2017-09-20T12:56:20.059Z,60.40
2017-09-20T12:58:50.737Z,61.00
2017-09-20T13:01:19.595Z,60.90
2017-09-20T13:03:49.066Z,59.60
2017-09-20T13:08:53.174Z,56.70
2017-09-20T13:11:23.903Z,56.70
2017-09-20T13:13:54.923Z,56.40
2017-09-20T13:16:23.895Z,56.20
2017-09-20T13:18:52.771Z,55.40
2017-09-20T13:21:21.627Z,55.20
2017-09-20T13:23:50.493Z,54.70
2017-09-20T13:26:20.375Z,54.40
2017-09-20T13:28:53.648Z,54.30
2017-09-20T13:31:26.289Z,52.90
2017-09-20T13:33:55.146Z,52.20
2017-09-20T13:36:25.088Z,52.70
2017-09-20T13:38:55.600Z,52.40
2017-09-20T13:41:26.096Z,52.90
2017-09-20T13:43:54.936Z,52.90
2017-09-20T13:46:23.885Z,53.00
2017-09-20T13:48:54.434Z,53.10
2017-09-20T13:51:25.127Z,53.40
2017-09-20T13:54:33.966Z,52.20
2017-09-20T13:57:07.071Z,51.70
2017-09-20T13:59:36.704Z,51.00
2017-09-20T14:04:40.363Z,50.80
2017-09-20T14:07:09.590Z,50.70
2017-09-20T14:09:39.100Z,50.40
2017-09-20T14:12:07.979Z,50.00
2017-09-20T14:14:36.821Z,49.20
2017-09-20T14:17:05.563Z,49.10
2017-09-20T14:19:34.905Z,48.40
2017-09-20T14:22:05.202Z,47.40
2017-09-20T14:24:34.889Z,47.40
2017-09-20T14:27:03.766Z,47.40
2017-09-20T14:29:32.629Z,46.80
2017-09-20T14:32:06.436Z,46.80
2017-09-20T14:34:35.326Z,46.70
2017-09-20T14:37:05.922Z,47.70
2017-09-20T14:39:34.807Z,47.70
2017-09-20T14:42:04.648Z,48.60
2017-09-20T14:44:34.318Z,48.30
2017-09-20T14:47:03.168Z,48.30
2017-09-20T14:49:32.804Z,47.20
2017-09-20T14:52:01.655Z,47.20
2017-09-20T14:54:30.515Z,47.40
2017-09-20T14:56:59.360Z,47.90
2017-09-20T14:59:29.109Z,47.80
2017-09-20T15:01:57.953Z,48.10
2017-09-20T15:04:26.808Z,48.40
2017-09-20T15:06:55.689Z,48.90
2017-09-20T15:09:24.565Z,49.70
2017-09-20T15:11:54.205Z,50.60
2017-09-20T15:14:23.048Z,51.60
2017-09-20T15:16:51.896Z,52.30
2017-09-20T15:19:20.773Z,53.20
2017-09-20T15:21:49.627Z,53.80
2017-09-20T15:24:18.471Z,54.30
2017-09-20T15:26:48.003Z,55.40
2017-09-20T15:29:16.894Z,54.50
2017-09-20T15:31:45.756Z,54.90
2017-09-20T15:34:14.616Z,54.90
2017-09-20T15:36:43.480Z,55.10
2017-09-20T15:39:12.328Z,55.30
2017-09-20T15:41:41.723Z,55.50
2017-09-20T15:44:10.580Z,55.80
2017-09-20T15:46:39.434Z,55.90
2017-09-20T15:49:09.927Z,56.20
2017-09-20T15:51:39.959Z,56.80
2017-09-20T15:54:08.804Z,56.50
2017-09-20T15:56:37.683Z,56.70
2017-09-20T15:59:15.988Z,56.90
2017-09-20T16:01:45.871Z,57.20
2017-09-20T16:04:14.721Z,57.30
2017-09-20T16:06:43.956Z,57.50
2017-09-20T16:09:12.799Z,57.70
2017-09-20T16:11:43.305Z,57.90
2017-09-20T16:14:13.081Z,57.80
2017-09-20T16:16:41.661Z,58.10
2017-09-20T16:19:10.508Z,58.10
2017-09-20T16:21:39.396Z,58.40
2017-09-20T16:24:08.237Z,58.60
2017-09-20T16:26:37.076Z,58.80
2017-09-20T16:29:06.168Z,58.80
2017-09-20T16:31:36.063Z,59.00
2017-09-20T16:34:05.681Z,59.30
2017-09-20T16:36:34.532Z,59.20
2017-09-20T16:39:03.197Z,59.20
2017-09-20T16:41:32.118Z,59.20
2017-09-20T16:44:00.971Z,59.30
2017-09-20T16:46:29.813Z,59.40
2017-09-20T16:48:58.653Z,59.30
2017-09-20T16:51:28.873Z,59.50
2017-09-20T16:53:58.077Z,59.60
2017-09-20T16:56:26.577Z,59.80
2017-09-20T16:58:56.098Z,59.90
2017-09-20T17:01:24.256Z,60.10
2017-09-20T17:03:53.111Z,60.20
2017-09-20T17:06:21.966Z,60.30
2017-09-20T17:08:50.817Z,60.40
2017-09-20T17:11:19.708Z,60.20
2017-09-20T17:13:49.331Z,60.30
2017-09-20T17:16:18.180Z,60.20
2017-09-20T17:18:48.011Z,60.50
2017-09-20T17:21:16.864Z,60.60
2017-09-20T17:23:46.484Z,61.00
2017-09-20T17:26:17.332Z,61.30
2017-09-20T17:28:46.194Z,61.30
2017-09-20T17:31:16.548Z,61.70
2017-09-20T17:33:45.397Z,61.70
2017-09-20T17:36:14.252Z,61.90
2017-09-20T17:38:43.099Z,61.90
2017-09-20T17:41:11.933Z,62.10
2017-09-20T17:43:41.320Z,62.20
2017-09-20T17:46:10.630Z,62.20
2017-09-20T17:48:39.472Z,62.60
2017-09-20T17:51:08.405Z,63.00
2017-09-20T17:53:37.248Z,63.20
2017-09-20T17:56:06.088Z,63.40
2017-09-20T17:58:34.924Z,63.30
2017-09-20T18:01:03.795Z,63.40
2017-09-20T18:03:32.641Z,64.00
2017-09-20T18:06:02.248Z,64.30
2017-09-20T18:08:32.793Z,64.50
2017-09-20T18:11:02.468Z,64.40
2017-09-20T18:13:31.623Z,64.80
2017-09-20T18:16:01.499Z,65.00
2017-09-20T18:18:30.836Z,65.20
2017-09-20T18:20:59.671Z,65.30
2017-09-20T18:23:28.323Z,65.60
2017-09-20T18:25:57.198Z,65.90
2017-09-20T18:28:26.052Z,66.10
2017-09-20T18:30:54.896Z,66.10
2017-09-20T18:33:23.769Z,66.20
2017-09-20T18:35:52.816Z,66.50
2017-09-20T18:38:21.655Z,67.00
2017-09-20T18:40:50.496Z,67.20
2017-09-20T18:43:19.151Z,67.40
2017-09-20T18:45:48.004Z,67.60
2017-09-20T18:48:17.519Z,68.00
2017-09-20T18:50:46.387Z,68.00
2017-09-20T18:53:15.996Z,68.50
2017-09-20T18:55:44.836Z,68.50
2017-09-20T18:58:13.688Z,68.70
2017-09-20T19:00:56.651Z,69.00
2017-09-20T19:03:27.605Z,69.00
2017-09-20T19:05:57.373Z,69.10
2017-09-20T19:08:27.626Z,69.10
2017-09-20T19:10:56.510Z,69.10
2017-09-20T19:13:25.807Z,69.10
2017-09-20T19:15:54.668Z,69.30
2017-09-20T19:18:24.311Z,69.60
2017-09-20T19:20:53.157Z,69.60
2017-09-20T19:23:23.951Z,69.70
2017-09-20T19:25:54.264Z,70.10
2017-09-20T19:28:24.803Z,70.20
2017-09-20T19:30:53.471Z,70.40
2017-09-20T19:33:23.630Z,70.50
2017-09-20T19:35:55.935Z,70.70
2017-09-20T19:38:26.880Z,70.80
2017-09-20T19:40:56.310Z,71.10
2017-09-20T19:43:25.164Z,71.10
2017-09-20T19:45:54.154Z,71.40
2017-09-20T19:48:23.027Z,71.50
2017-09-20T19:53:25.841Z,71.90
2017-09-20T19:55:54.868Z,71.90
2017-09-20T19:58:23.716Z,71.90
2017-09-20T20:00:52.567Z,72.10
2017-09-20T20:03:21.236Z,72.10
2017-09-20T20:05:50.100Z,72.40
2017-09-20T20:08:19.733Z,72.60
2017-09-20T20:10:51.293Z,72.60
2017-09-20T20:13:20.139Z,72.80
2017-09-20T20:15:49.005Z,72.80
2017-09-20T20:18:17.902Z,73.30
2017-09-20T20:20:46.761Z,73.30
2017-09-20T20:23:16.885Z,73.30
2017-09-20T20:25:45.748Z,73.10
2017-09-20T20:28:16.431Z,73.50
2017-09-20T20:30:45.274Z,73.50
2017-09-20T20:33:14.892Z,74.00
2017-09-20T20:35:44.552Z,74.00
2017-09-20T20:38:13.469Z,74.00
2017-09-20T20:40:42.337Z,74.20
2017-09-20T20:43:11.180Z,74.40
2017-09-20T20:45:40.031Z,74.50
2017-09-20T20:48:08.585Z,74.80
2017-09-20T20:50:37.756Z,74.90
2017-09-20T20:53:09.103Z,75.10
2017-09-20T20:55:37.973Z,75.10
2017-09-20T20:58:07.603Z,75.40
2017-09-20T21:00:36.467Z,75.40
2017-09-20T21:03:06.515Z,75.60
2017-09-20T21:05:35.808Z,75.50
2017-09-20T21:08:05.495Z,75.60
2017-09-20T21:10:35.122Z,75.80
2017-09-20T21:13:04.759Z,75.80
2017-09-20T21:15:33.445Z,75.70
2017-09-20T21:18:02.125Z,75.70
2017-09-20T21:20:31.010Z,75.80
2017-09-20T21:22:59.871Z,76.00
2017-09-20T21:25:29.491Z,76.30
2017-09-20T21:27:59.235Z,76.50
2017-09-20T21:30:28.087Z,76.50
2017-09-20T21:32:57.708Z,76.40
2017-09-20T21:35:28.295Z,76.70
2017-09-20T21:38:07.180Z,76.60
2017-09-20T21:40:36.029Z,76.70
2017-09-20T21:43:05.139Z,77.00
2017-09-20T21:45:34.762Z,77.30
2017-09-20T21:48:04.374Z,77.40
2017-09-20T21:50:33.993Z,77.30
2017-09-20T21:53:02.892Z,77.30
2017-09-20T21:55:33.787Z,77.10
2017-09-20T21:58:02.632Z,77.10
2017-09-20T22:00:35.293Z,77.00
2017-09-20T22:03:04.116Z,76.90
2017-09-20T22:05:32.970Z,77.10
2017-09-20T22:08:02.824Z,77.20
2017-09-20T22:10:31.685Z,77.20
2017-09-20T22:13:00.540Z,77.50
2017-09-20T22:15:40.593Z,77.70
2017-09-20T22:18:21.675Z,77.70
2017-09-20T22:21:01.787Z,77.70
2017-09-20T22:23:41.883Z,77.80
2017-09-20T22:26:22.020Z,77.70
2017-09-20T22:28:50.675Z,77.70
2017-09-20T22:31:19.639Z,77.60
2017-09-20T22:33:48.514Z,77.70
2017-09-20T22:36:18.492Z,78.20
2017-09-20T22:38:48.445Z,78.20
2017-09-20T22:41:17.770Z,78.70
2017-09-20T22:43:46.615Z,78.60
2017-09-20T22:46:15.510Z,79.30
2017-09-20T22:48:46.372Z,78.70
2017-09-20T22:51:15.526Z,78.70
2017-09-20T22:53:44.371Z,78.70
2017-09-20T22:56:13.233Z,78.70
2017-09-20T22:58:42.109Z,78.70
2017-09-20T23:01:10.964Z,78.70
2017-09-20T23:03:39.820Z,78.80
2017-09-20T23:06:09.431Z,79.40
2017-09-20T23:08:39.756Z,79.20
2017-09-20T23:11:09.364Z,79.90
2017-09-20T23:13:38.217Z,79.30
2017-09-20T23:16:07.741Z,79.30
2017-09-20T23:18:36.579Z,79.50
2017-09-20T23:21:05.428Z,79.60
2017-09-20T23:23:34.271Z,79.70
2017-09-20T23:26:03.138Z,79.70
2017-09-20T23:28:32.564Z,79.60
2017-09-20T23:31:01.412Z,79.50
2017-09-20T23:33:31.051Z,79.70
2017-09-20T23:35:59.909Z,79.70
2017-09-20T23:38:28.775Z,79.70
2017-09-20T23:40:57.656Z,79.90
2017-09-20T23:43:26.616Z,79.90
2017-09-20T23:45:55.475Z,80.00
2017-09-20T23:48:24.341Z,80.10
2017-09-20T23:50:53.203Z,80.20
2017-09-20T23:53:22.050Z,80.10
2017-09-20T23:55:52.647Z,80.30
2017-09-20T23:58:21.515Z,80.30
